Time;durP1;ratioP1;P1;durP2;ratioP2;P2;SDS_P1;SDS_P2;PMS_P1;PMS_P2;Temp;Humidity;BMP_temperature;BMP_pressure;BME280_temperature;BME280_humidity;BME280_pressure;Samples;Min_cycle;Max_cycle;Signal;HPM_P1;HPM_P2
2021/04/04 00:01:15;;;;;;;4.55;2.88;;;;;;;14.94;58.98;99107.38;5053476;28;20017;-78
2021/04/04 00:03:41;;;;;;;3.70;3.33;;;;;;;15.01;58.91;99128.59;5057904;28;20094;-78
2021/04/04 00:06:06;;;;;;;3.53;3.22;;;;;;;14.57;59.51;99070.00;5057901;28;20096;-78
2021/04/04 00:08:31;;;;;;;5.13;3.60;;;;;;;14.69;59.51;99099.34;5055518;22;20046;-79
2021/04/04 00:10:57;;;;;;;3.63;3.33;;;;;;;14.81;59.67;99121.53;5019760;28;20022;-78
2021/04/04 00:13:22;;;;;;;2.83;2.63;;;;;;;14.50;60.08;99085.16;5037886;28;20037;-78
2021/04/04 00:15:48;;;;;;;3.75;2.97;;;;;;;14.69;60.24;99123.25;5037848;28;20391;-79
2021/04/04 00:18:13;;;;;;;2.45;2.25;;;;;;;14.69;60.78;99133.88;5037791;28;20036;-78
2021/04/04 00:20:38;;;;;;;2.78;2.58;;;;;;;14.35;60.65;99094.44;5037412;28;20021;-78
2021/04/04 00:23:04;;;;;;;2.55;2.35;;;;;;;14.64;60.67;99131.06;5037758;28;20021;-78
2021/04/04 00:25:30;;;;;;;2.75;2.25;;;;;;;14.23;60.84;99060.59;5019876;28;20079;-79
2021/04/04 00:27:56;;;;;;;5.00;2.30;;;;;;;14.50;60.88;99113.56;5020030;28;20039;-78
2021/04/04 00:30:22;;;;;;;3.65;2.45;;;;;;;14.43;61.01;99120.78;5019877;28;20033;-80
2021/04/04 00:32:48;;;;;;;2.47;2.28;;;;;;;14.40;61.44;99118.50;5019808;28;20036;-79
2021/04/04 00:35:16;;;;;;;2.40;2.20;;;;;;;14.47;61.47;99130.75;5019833;28;20088;-79
2021/04/04 00:37:43;;;;;;;3.22;2.90;;;;;;;14.48;61.60;99137.69;5037205;28;20025;-78
2021/04/04 00:40:15;;;;;;;3.03;2.58;;;;;;;13.81;61.53;99040.78;5037284;28;20053;-78
2021/04/04 00:42:41;;;;;;;3.47;2.47;;;;;;;14.29;61.77;99127.97;5019672;28;20026;-79
2021/04/04 00:45:18;;;;;;;2.92;2.63;;;;;;;14.31;62.01;99136.53;5037316;28;20037;-78
2021/04/04 00:47:44;;;;;;;3.03;2.72;;;;;;;14.08;62.21;99107.81;5037101;28;20025;-78
2021/04/04 00:50:10;;;;;;;3.30;3.00;;;;;;;14.03;62.19;99099.66;5037066;28;20079;-78
2021/04/04 00:52:37;;;;;;;3.97;3.10;;;;;;;14.37;62.23;99142.84;5019482;28;20037;-78
2021/04/04 00:55:05;;;;;;;4.15;3.75;;;;;;;14.33;62.45;99139.78;5036906;28;20022;-78
2021/04/04 00:57:32;;;;;;;3.97;3.67;;;;;;;14.24;62.45;99136.56;5036774;28;20036;-78
2021/04/04 00:59:57;;;;;;;3.28;3.08;;;;;;;14.25;62.61;99137.38;5036879;28;20049;-78
2021/04/04 01:02:23;;;;;;;4.18;3.35;;;;;;;14.17;63.04;99135.78;5037053;28;20102;-78
2021/04/04 01:04:50;;;;;;;3.10;2.90;;;;;;;14.03;63.11;99130.72;5036647;28;20021;-78
2021/04/04 01:07:16;;;;;;;2.70;2.50;;;;;;;13.74;63.07;99094.88;5019299;28;20025;-77
2021/04/04 01:09:41;;;;;;;3.38;2.92;;;;;;;13.81;63.56;99098.34;5036474;28;20053;-78
2021/04/04 01:12:42;;;;;;;3.47;3.17;;;;;;;14.10;64.29;99136.81;5036729;28;20045;-77
2021/04/04 01:15:17;;;;;;;8.10;3.42;;;;;;;13.99;63.84;99123.16;5022510;28;20084;-76
2021/04/04 01:17:45;;;;;;;4.53;2.60;;;;;;;14.03;63.89;99150.09;5036475;28;20033;-77
2021/04/04 01:20:18;;;;;;;4.57;2.70;;;;;;;13.83;63.98;99118.31;5019036;28;20106;-77
2021/04/04 01:22:58;;;;;;;3.42;2.33;;;;;;;13.92;64.23;99145.44;5036531;28;20059;-77
2021/04/04 01:25:38;;;;;;;4.72;3.30;;;;;;;13.62;63.77;99113.28;5036611;28;20036;-77
2021/04/04 01:28:42;;;;;;;3.17;2.80;;;;;;;13.76;64.16;99130.78;5036566;28;20029;-77
2021/04/04 01:31:08;;;;;;;2.70;2.40;;;;;;;13.45;63.76;99073.13;4956440;29;20086;-77
2021/04/04 01:33:36;;;;;;;4.32;2.72;;;;;;;13.80;63.95;99129.34;5007940;28;20041;-77
2021/04/04 01:36:05;;;;;;;2.50;1.92;;;;;;;13.65;64.26;99112.88;5036293;28;20018;-76
2021/04/04 01:38:36;;;;;;;2.63;1.70;;;;;;;13.46;64.33;99103.94;5018389;28;20116;-77
2021/04/04 01:41:07;;;;;;;2.25;1.70;;;;;;;13.58;63.99;99117.38;5036238;28;20022;-77
2021/04/04 01:43:34;;;;;;;1.70;1.50;;;;;;;13.57;63.95;99134.31;5018649;28;20026;-77
2021/04/04 01:46:01;;;;;;;0.95;0.82;;;;;;;13.29;63.79;99110.66;5036339;28;20026;-77
2021/04/04 01:48:26;;;;;;;1.25;1.08;;;;;;;13.02;63.65;99096.59;5036187;28;20431;-77
2021/04/04 01:50:53;;;;;;;0.95;0.90;;;;;;;12.76;63.57;99049.72;5035908;28;20063;-77
2021/04/04 01:53:19;;;;;;;0.95;0.80;;;;;;;13.39;63.53;99158.00;5018415;28;20061;-77
2021/04/04 01:55:47;;;;;;;1.73;0.90;;;;;;;13.46;63.05;99169.44;5035815;28;20064;-77
2021/04/04 01:58:13;;;;;;;1.70;1.05;;;;;;;13.21;62.92;99116.19;5035780;28;20033;-76
2021/04/04 02:00:40;;;;;;;1.42;1.33;;;;;;;13.11;63.30;99091.91;5035691;28;20344;-77
2021/04/04 02:03:07;;;;;;;1.40;1.30;;;;;;;13.41;62.88;99151.47;5018132;28;20347;-77
2021/04/04 02:05:34;;;;;;;1.98;1.70;;;;;;;12.79;62.58;99054.63;5035503;28;20021;-77
2021/04/04 02:08:01;;;;;;;2.10;1.80;;;;;;;13.33;63.24;99149.81;5035538;28;20462;-76
2021/04/04 02:10:29;;;;;;;3.50;2.13;;;;;;;12.84;62.98;99081.31;5035965;28;20104;-76
2021/04/04 02:12:58;;;;;;;2.30;1.98;;;;;;;13.27;63.30;99147.19;5036110;28;20339;-77
2021/04/04 02:15:26;;;;;;;3.38;2.25;;;;;;;12.60;62.69;99047.44;5035778;28;20347;-77
2021/04/04 02:17:53;;;;;;;3.00;1.90;;;;;;;13.30;62.88;99162.69;5035536;28;20025;-76
2021/04/04 02:20:22;;;;;;;2.17;1.98;;;;;;;13.17;63.24;99160.03;5035444;28;20364;-76
2021/04/04 02:22:48;;;;;;;2.78;2.58;;;;;;;13.20;62.46;99162.28;5035423;28;20053;-77
2021/04/04 02:25:16;;;;;;;3.20;2.50;;;;;;;13.18;62.45;99175.72;5034462;28;20025;-77
2021/04/04 02:27:46;;;;;;;3.67;2.88;;;;;;;12.99;63.27;99147.34;5035389;28;20340;-77
2021/04/04 02:30:15;;;;;;;3.55;3.25;;;;;;;13.19;62.62;99164.09;5035334;28;20029;-77
2021/04/04 02:32:55;;;;;;;4.70;3.60;;;;;;;13.17;63.51;99163.50;5017377;28;20325;-77
2021/04/04 02:35:42;;;;;;;4.43;4.03;;;;;;;13.06;63.53;99153.47;5035371;28;20032;-76
2021/04/04 02:38:18;;;;;;;4.63;3.92;;;;;;;12.69;62.79;99093.94;5035250;28;20026;-77
2021/04/04 02:40:46;;;;;;;5.88;4.32;;;;;;;13.15;62.40;99170.81;5035399;28;20254;-77
2021/04/04 02:43:16;;;;;;;4.38;3.97;;;;;;;13.13;62.73;99175.50;5017645;28;20029;-78
2021/04/04 02:45:45;;;;;;;5.40;4.55;;;;;;;12.74;62.74;99117.97;5034958;28;20817;-77
2021/04/04 02:48:15;;;;;;;5.15;4.47;;;;;;;12.90;61.96;99164.47;5035022;28;20455;-77
2021/04/04 02:50:42;;;;;;;6.50;5.47;;;;;;;13.07;62.66;99202.81;5034920;28;20017;-77
2021/04/04 02:53:08;;;;;;;5.72;5.22;;;;;;;12.48;62.30;99123.22;5035111;28;20028;-76
2021/04/04 02:55:37;;;;;;;5.53;5.03;;;;;;;12.54;62.96;99156.84;5034726;28;20026;-78
2021/04/04 02:58:06;;;;;;;4.85;4.35;;;;;;;12.86;62.66;99205.63;5034746;28;20101;-76
2021/04/04 03:00:33;;;;;;;5.68;4.97;;;;;;;12.78;61.95;99195.22;5034678;28;20024;-76
2021/04/04 03:03:02;;;;;;;6.15;5.55;;;;;;;12.66;62.37;99195.00;5035047;28;20383;-76
2021/04/04 03:05:29;;;;;;;5.47;4.90;;;;;;;12.57;61.85;99185.56;5034818;28;20029;-77
2021/04/04 03:07:57;;;;;;;4.40;3.72;;;;;;;12.03;62.38;99173.16;5016876;28;20786;-77
2021/04/04 03:10:23;;;;;;;3.33;3.03;;;;;;;12.18;62.59;99215.34;5033872;28;20084;-77
2021/04/04 03:12:50;;;;;;;3.40;3.08;;;;;;;11.59;62.46;99110.00;5033640;28;20021;-77
2021/04/04 03:15:18;;;;;;;2.70;2.50;;;;;;;11.60;63.34;99128.31;5033905;28;20021;-77
2021/04/04 03:17:45;;;;;;;3.40;3.10;;;;;;;12.11;62.88;99209.22;5016527;28;20406;-77
2021/04/04 03:20:13;;;;;;;3.10;2.80;;;;;;;11.94;62.48;99196.31;5033901;28;20025;-77
2021/04/04 03:22:43;;;;;;;2.17;2.03;;;;;;;12.00;62.52;99189.41;5033571;28;20416;-76
2021/04/04 03:25:10;;;;;;;2.63;2.10;;;;;;;12.22;62.03;99219.25;5016172;28;20099;-76
2021/04/04 03:27:39;;;;;;;3.15;2.20;;;;;;;12.18;61.80;99225.94;5016222;28;20344;-77
2021/04/04 03:30:08;;;;;;;3.10;1.95;;;;;;;12.17;61.88;99232.25;5016043;28;20036;-77
2021/04/04 03:32:36;;;;;;;2.65;2.15;;;;;;;12.00;61.73;99206.09;5033609;28;20034;-76
2021/04/04 03:35:04;;;;;;;2.13;1.83;;;;;;;12.00;61.62;99207.94;5016076;28;20102;-77
2021/04/04 03:37:31;;;;;;;2.50;1.95;;;;;;;11.77;61.12;99194.91;5035552;28;20355;-76
2021/04/04 03:39:57;;;;;;;3.25;2.10;;;;;;;11.92;62.03;99224.78;5037042;28;20028;-77
2021/04/04 03:42:25;;;;;;;3.35;2.15;;;;;;;11.18;62.32;99109.94;5036930;28;20029;-76
2021/04/04 03:44:51;;;;;;;2.03;1.83;;;;;;;11.53;62.42;99179.50;5036894;28;20439;-77
2021/04/04 03:47:17;;;;;;;3.20;1.90;;;;;;;11.87;62.32;99221.88;5036936;28;20021;-77
2021/04/04 03:49:43;;;;;;;2.35;2.03;;;;;;;11.49;62.98;99168.50;5036791;28;20392;-77
2021/04/04 03:52:09;;;;;;;2.45;2.17;;;;;;;11.52;62.90;99183.16;5019305;28;20067;-77
2021/04/04 03:54:35;;;;;;;1.63;1.50;;;;;;;11.53;62.76;99169.75;5036731;28;20363;-77
2021/04/04 03:57:01;;;;;;;1.70;1.52;;;;;;;11.74;62.45;99200.59;5036760;28;20049;-77
2021/04/04 03:59:29;;;;;;;2.15;1.95;;;;;;;11.70;62.48;99228.44;5019360;28;20491;-77
2021/04/04 04:01:56;;;;;;;2.78;2.20;;;;;;;11.68;62.35;99204.00;5036749;28;20049;-76
2021/04/04 04:04:21;;;;;;;2.42;2.22;;;;;;;11.48;62.59;99171.34;5036665;28;20076;-77
2021/04/04 04:06:48;;;;;;;2.40;2.20;;;;;;;11.65;61.58;99213.16;5019024;28;20029;-77
2021/04/04 04:09:17;;;;;;;4.03;2.60;;;;;;;11.65;62.29;99204.41;5012282;28;720541;-77
2021/04/04 04:11:49;;;;;;;2.50;2.20;;;;;;;11.10;62.11;99121.44;5020456;28;20329;-77
2021/04/04 04:14:19;;;;;;;2.42;2.22;;;;;;;11.32;62.00;99160.03;5037942;28;20348;-76
2021/04/04 04:16:45;;;;;;;2.42;2.22;;;;;;;11.68;61.99;99223.34;5037560;28;20424;-76
2021/04/04 04:19:11;;;;;;;2.75;2.55;;;;;;;11.66;62.62;99240.41;5037650;28;20040;-76
2021/04/04 04:21:38;;;;;;;2.75;2.55;;;;;;;11.70;62.49;99236.38;5019964;28;20036;-77
2021/04/04 04:24:06;;;;;;;3.88;2.70;;;;;;;11.70;62.41;99244.31;5037558;28;20431;-77
2021/04/04 04:26:36;;;;;;;3.25;2.75;;;;;;;11.73;62.05;99242.09;5019746;28;20041;-76
2021/04/04 04:29:02;;;;;;;3.35;2.67;;;;;;;11.76;61.56;99256.75;5037624;28;20441;-76
2021/04/04 04:31:32;;;;;;;2.88;2.63;;;;;;;11.50;62.38;99230.13;5037416;28;20031;-77
2021/04/04 04:34:01;;;;;;;3.45;2.95;;;;;;;11.22;62.19;99191.28;5037422;28;20037;-77
2021/04/04 04:36:27;;;;;;;3.10;2.80;;;;;;;11.61;61.93;99261.31;5019907;28;20072;-77
2021/04/04 04:38:53;;;;;;;3.13;2.83;;;;;;;11.59;61.57;99272.09;5037126;28;20021;-77
2021/04/04 04:41:19;;;;;;;3.63;2.88;;;;;;;11.61;62.07;99275.38;5037288;28;20022;-77
2021/04/04 04:43:50;;;;;;;3.78;3.22;;;;;;;11.18;61.90;99220.91;5019581;28;20352;-76
2021/04/04 04:46:17;;;;;;;4.32;3.30;;;;;;;11.36;61.82;99239.78;5037364;28;20416;-80
2021/04/04 04:48:42;;;;;;;4.88;3.38;;;;;;;11.36;62.06;99247.69;5036023;28;20075;-76
2021/04/04 04:51:09;;;;;;;6.20;3.85;;;;;;;11.30;62.07;99249.28;5037083;28;20025;-76
2021/04/04 04:53:34;;;;;;;4.82;4.28;;;;;;;11.18;62.11;99216.44;5037177;28;20387;-76
2021/04/04 04:56:02;;;;;;;5.30;4.22;;;;;;;11.41;62.27;99277.84;5037380;28;20100;-77
2021/04/04 04:58:33;;;;;;;4.50;4.10;;;;;;;11.53;62.38;99293.19;5037173;28;20026;-76
2021/04/04 05:01:02;;;;;;;4.55;4.15;;;;;;;11.27;61.85;99256.78;5037204;28;20052;-77
2021/04/04 05:03:27;;;;;;;5.25;4.70;;;;;;;11.50;61.58;99294.38;5036964;28;20029;-76
2021/04/04 05:05:53;;;;;;;4.90;4.40;;;;;;;11.28;62.25;99263.69;5019242;28;20048;-76
2021/04/04 05:08:20;;;;;;;5.72;4.55;;;;;;;11.48;62.27;99290.31;5036555;28;20091;-77
2021/04/04 05:10:48;;;;;;;5.22;4.15;;;;;;;11.46;61.94;99278.09;5036725;28;20044;-77
2021/04/04 05:13:13;;;;;;;5.32;4.00;;;;;;;11.68;62.03;99315.91;5036938;28;20033;-77
2021/04/04 05:15:41;;;;;;;4.93;4.43;;;;;;;11.69;62.16;99311.44;5019159;28;20163;-77
2021/04/04 05:18:06;;;;;;;5.45;4.95;;;;;;;11.68;61.88;99310.63;5036721;28;20041;-76
2021/04/04 05:20:33;;;;;;;5.05;4.55;;;;;;;11.73;61.59;99315.34;5036795;28;20021;-77
2021/04/04 05:22:59;;;;;;;4.68;4.28;;;;;;;11.64;62.59;99297.97;5036598;28;20033;-76
2021/04/04 05:25:25;;;;;;;6.60;6.00;;;;;;;11.78;61.93;99318.25;5036468;28;20033;-76
2021/04/04 05:27:50;;;;;;;5.10;4.50;;;;;;;11.01;61.82;99185.97;5036401;28;20032;-76
2021/04/04 05:30:16;;;;;;;5.22;4.72;;;;;;;11.78;62.26;99316.44;5036534;28;20104;-77
2021/04/04 05:32:48;;;;;;;5.25;4.75;;;;;;;11.78;62.09;99315.59;5036340;28;20029;-77
2021/04/04 05:35:22;;;;;;;4.30;3.90;;;;;;;11.54;62.47;99289.53;5036542;28;20029;-76
2021/04/04 05:37:50;;;;;;;5.40;4.90;;;;;;;11.35;62.49;99249.53;5036070;28;20041;-77
2021/04/04 05:40:20;;;;;;;5.68;5.00;;;;;;;11.82;62.84;99329.28;5036269;28;20036;-77
2021/04/04 05:42:57;;;;;;;5.32;4.78;;;;;;;11.83;61.91;99331.72;5036197;28;20041;-76
2021/04/04 05:45:28;;;;;;;5.70;4.57;;;;;;;11.78;62.52;99323.53;5036229;28;20040;-77
2021/04/04 05:48:05;;;;;;;6.63;5.95;;;;;;;11.80;62.15;99328.66;5035961;28;20026;-77
2021/04/04 05:50:44;;;;;;;5.85;5.00;;;;;;;11.25;62.46;99269.34;5018372;28;20037;-77
2021/04/04 05:53:19;;;;;;;8.30;6.22;;;;;;;11.56;62.72;99324.53;5036123;28;20025;-77
2021/04/04 05:56:20;;;;;;;6.60;5.18;;;;;;;11.75;63.46;99353.00;5035952;28;20112;-77
2021/04/04 05:58:55;;;;;;;7.68;5.60;;;;;;;11.72;63.04;99340.16;5035606;28;20029;-77
2021/04/04 06:01:42;;;;;;;5.88;5.38;;;;;;;11.61;63.08;99328.25;5035849;28;20029;-77
2021/04/04 06:04:10;;;;;;;8.23;5.97;;;;;;;11.80;62.11;99352.44;5035906;28;20029;-76
2021/04/04 06:06:57;;;;;;;7.95;6.10;;;;;;;11.82;62.28;99351.25;5035630;28;20060;-77
2021/04/04 06:09:26;;;;;;;5.70;5.10;;;;;;;11.87;62.23;99351.50;5017779;28;20107;-77
2021/04/04 06:12:06;;;;;;;5.90;5.15;;;;;;;11.86;62.47;99365.72;5035514;28;20108;-76
2021/04/04 06:14:40;;;;;;;6.20;5.60;;;;;;;11.87;62.78;99361.25;5035738;28;20063;-77
2021/04/04 06:17:15;;;;;;;7.35;5.70;;;;;;;11.56;62.92;99325.38;5035648;28;20032;-77
2021/04/04 06:20:12;;;;;;;7.30;6.13;;;;;;;11.84;63.40;99365.09;5035515;28;20018;-77
2021/04/04 06:22:49;;;;;;;6.82;6.22;;;;;;;11.89;62.53;99375.97;5028379;28;20120;-76
2021/04/04 06:25:27;;;;;;;6.93;6.22;;;;;;;11.78;62.84;99358.75;5035531;28;20462;-76
2021/04/04 06:28:17;;;;;;;7.00;6.30;;;;;;;11.76;63.24;99362.56;5035277;28;20442;-77
2021/04/04 06:31:05;;;;;;;5.38;4.75;;;;;;;11.52;63.18;99339.16;5017665;28;20025;-77
2021/04/04 06:33:40;;;;;;;6.88;6.18;;;;;;;11.72;62.86;99348.91;5035461;28;20025;-77
2021/04/04 06:36:33;;;;;;;6.25;5.20;;;;;;;11.83;62.45;99367.94;5035219;28;20090;-77
2021/04/04 06:39:06;;;;;;;6.78;5.72;;;;;;;11.90;62.92;99363.56;5017751;28;20022;-77
2021/04/04 06:41:53;;;;;;;7.05;5.70;;;;;;;11.94;62.80;99357.69;5035020;28;20044;-77
2021/04/04 06:45:09;;;;;;;6.45;5.85;;;;;;;11.96;62.60;99363.59;5017616;28;20072;-76
2021/04/04 06:48:14;;;;;;;9.05;6.57;;;;;;;11.37;62.18;99281.06;4955212;29;20393;-76
2021/04/04 06:50:45;;;;;;;6.63;5.78;;;;;;;11.92;62.38;99399.41;4954983;29;20020;-76
2021/04/04 06:53:26;;;;;;;7.72;6.55;;;;;;;11.94;62.18;99401.84;5016525;28;20069;-76
2021/04/04 06:55:58;;;;;;;7.15;6.43;;;;;;;11.91;62.30;99396.94;5035114;28;20025;-76
2021/04/04 06:58:42;;;;;;;;;;;;;;;11.83;62.79;99402.31;5035389;28;20392;-77
2021/04/04 07:01:36;;;;;;;8.20;6.28;;;;;;;11.98;61.60;99416.34;5017411;28;19974;-76
2021/04/04 07:04:10;;;;;;;5.80;5.18;;;;;;;11.32;61.58;99318.63;5017326;28;20025;-76
2021/04/04 07:07:03;;;;;;;8.18;6.80;;;;;;;11.96;62.26;99426.28;5034658;28;20424;-76
2021/04/04 07:10:05;;;;;;;8.50;6.43;;;;;;;12.00;61.65;99424.91;5034775;28;21924;-76
2021/04/04 07:13:10;;;;;;;8.40;6.65;;;;;;;11.89;62.76;99425.38;5033989;28;20033;-76
2021/04/04 07:15:48;;;;;;;7.68;5.88;;;;;;;11.40;61.88;99344.94;5016981;28;20033;-76
2021/04/04 07:18:28;;;;;;;6.65;5.95;;;;;;;12.02;61.66;99434.28;5034729;28;20119;-75
2021/04/04 07:21:12;;;;;;;6.50;5.82;;;;;;;12.07;61.88;99423.94;5034491;28;20025;-75
2021/04/04 07:23:44;;;;;;;6.10;5.22;;;;;;;12.16;61.72;99421.16;5034697;28;20056;-75
2021/04/04 07:26:36;;;;;;;6.20;5.60;;;;;;;12.20;61.29;99422.44;5034702;28;20029;-75
2021/04/04 07:29:10;;;;;;;6.80;5.45;;;;;;;12.20;61.62;99436.47;5034645;28;20029;-75
2021/04/04 07:31:41;;;;;;;7.10;5.72;;;;;;;12.25;61.00;99449.97;5034339;28;20503;-76
2021/04/04 07:34:15;;;;;;;8.70;6.28;;;;;;;12.27;61.34;99436.53;5016944;28;20391;-76
2021/04/04 07:36:52;;;;;;;6.93;5.63;;;;;;;10.01;60.63;99064.50;5034340;28;20040;-76
2021/04/04 07:39:24;;;;;;;7.68;6.88;;;;;;;12.34;61.30;99432.09;5016822;28;20022;-76
2021/04/04 07:42:13;;;;;;;8.13;6.72;;;;;;;12.32;60.99;99431.47;5034213;28;20025;-76
2021/04/04 07:44:49;;;;;;;7.43;6.05;;;;;;;12.03;60.41;99401.53;5016629;28;20023;-76
2021/04/04 07:47:48;;;;;;;6.95;6.20;;;;;;;12.31;61.30;99438.59;5034525;28;20399;-76
2021/04/04 07:50:37;;;;;;;6.97;6.03;;;;;;;12.39;60.75;99433.16;5034078;28;20079;-76
2021/04/04 07:53:19;;;;;;;7.40;6.70;;;;;;;12.45;60.18;99431.56;5022453;28;20045;-76
2021/04/04 07:55:54;;;;;;;7.95;6.85;;;;;;;11.77;60.53;99327.16;5016630;28;20502;-76
2021/04/04 07:58:40;;;;;;;8.00;6.82;;;;;;;12.46;60.40;99449.09;5034217;28;20049;-76
2021/04/04 08:01:13;;;;;;;5.50;5.00;;;;;;;12.48;60.04;99452.38;5034279;28;20018;-77
2021/04/04 08:04:09;;;;;;;6.60;6.00;;;;;;;12.49;60.08;99446.06;5034311;28;20045;-76
2021/04/04 08:06:50;;;;;;;6.53;5.93;;;;;;;12.16;59.41;99421.16;5034388;28;20032;-76
2021/04/04 08:09:43;;;;;;;7.90;6.13;;;;;;;12.33;59.53;99455.13;5016365;28;20140;-76
2021/04/04 08:12:20;;;;;;;9.13;6.80;;;;;;;12.47;59.93;99463.16;5034266;28;20109;-77
2021/04/04 08:15:07;;;;;;;8.55;7.65;;;;;;;12.49;60.12;99455.84;5034122;28;20079;-76
2021/04/04 08:17:35;;;;;;;7.43;6.57;;;;;;;12.52;59.34;99444.88;5033995;28;20024;-76
2021/04/04 08:20:19;;;;;;;6.55;5.85;;;;;;;12.34;59.06;99413.56;5034235;28;20025;-77
2021/04/04 08:22:50;;;;;;;17.17;5.68;;;;;;;12.38;58.83;99418.28;5035357;28;20588;-77
2021/04/04 08:25:28;;;;;;;13.07;6.32;;;;;;;12.20;59.06;99388.84;5037848;28;20029;-76
2021/04/04 08:28:01;;;;;;;8.55;5.80;;;;;;;12.46;57.88;99422.63;5019838;28;20163;-77
2021/04/04 08:30:51;;;;;;;5.35;4.85;;;;;;;12.46;58.73;99441.16;5037779;28;20025;-76
2021/04/04 08:33:25;;;;;;;7.60;5.20;;;;;;;12.50;58.56;99460.13;5037486;28;20033;-76
2021/04/04 08:35:54;;;;;;;6.95;5.90;;;;;;;12.33;58.53;99433.94;5019781;28;20036;-76
2021/04/04 08:38:22;;;;;;;5.90;5.25;;;;;;;12.62;58.61;99469.19;5037414;28;20014;-77
2021/04/04 08:40:48;;;;;;;5.75;5.15;;;;;;;12.61;58.37;99478.97;5037085;28;20089;-76
2021/04/04 08:43:14;;;;;;;8.43;5.88;;;;;;;12.54;58.69;99451.59;5037169;28;20021;-77
2021/04/04 08:45:49;;;;;;;6.60;5.55;;;;;;;12.68;58.43;99457.84;5037080;28;20017;-76
2021/04/04 08:48:17;;;;;;;5.72;5.13;;;;;;;12.66;58.48;99465.97;5019596;28;20025;-76
2021/04/04 08:50:44;;;;;;;6.72;5.90;;;;;;;12.49;57.66;99435.47;5036972;28;20017;-76
2021/04/04 08:53:31;;;;;;;7.15;6.45;;;;;;;12.69;58.74;99467.44;5036957;28;20026;-76
2021/04/04 08:55:59;;;;;;;9.18;7.07;;;;;;;12.58;58.45;99447.56;5036913;28;20109;-77
2021/04/04 08:58:31;;;;;;;7.50;6.80;;;;;;;12.79;57.84;99469.72;5036955;28;20029;-77
2021/04/04 09:01:05;;;;;;;7.53;6.57;;;;;;;12.59;58.45;99451.84;5036802;28;20048;-76
2021/04/04 09:03:37;;;;;;;7.72;7.03;;;;;;;12.79;58.05;99475.03;5036959;28;20356;-77
2021/04/04 09:06:05;;;;;;;7.82;6.93;;;;;;;12.78;57.98;99487.47;5036840;28;20091;-77
2021/04/04 09:08:32;;;;;;;8.98;6.93;;;;;;;12.29;58.28;99408.03;5036556;28;20045;-76
2021/04/04 09:10:59;;;;;;;6.95;6.25;;;;;;;12.36;58.67;99412.38;5018910;28;20045;-75
2021/04/04 09:13:31;;;;;;;7.10;5.70;;;;;;;12.08;58.78;99380.59;5036645;28;20029;-76
2021/04/04 09:15:59;;;;;;;8.05;7.10;;;;;;;12.47;59.38;99445.44;5036617;28;20029;-77
2021/04/04 09:18:26;;;;;;;8.45;6.60;;;;;;;12.62;59.28;99474.47;5036526;28;20044;-76
2021/04/04 09:21:03;;;;;;;9.30;7.72;;;;;;;12.52;59.28;99453.63;5018915;28;20107;-76
2021/04/04 09:23:29;;;;;;;9.82;8.82;;;;;;;12.48;58.92;99449.72;5036537;28;20021;-77
2021/04/04 09:26:21;;;;;;;15.35;11.57;;;;;;;12.26;59.90;99421.66;5036335;28;20036;-76
2021/04/04 09:28:48;;;;;;;;;;;;;;;12.26;60.86;99450.78;5028112;28;20131;-77
2021/04/04 09:31:30;;;;;;;10.80;7.88;;;;;;;12.36;60.19;99464.50;5036328;28;20055;-77
2021/04/04 09:34:01;;;;;;;;;;;;;;;12.20;61.14;99459.47;5036267;28;20097;-76
2021/04/04 09:36:42;;;;;;;10.93;8.88;;;;;;;12.17;61.29;99450.09;5036324;28;19916;-77
2021/04/04 09:39:10;;;;;;;9.30;8.40;;;;;;;12.23;60.44;99451.97;5036275;28;20104;-77
2021/04/04 09:41:38;;;;;;;10.85;9.20;;;;;;;12.11;60.84;99419.09;5036025;28;20040;-77
2021/04/04 09:44:06;;;;;;;11.32;8.88;;;;;;;12.31;61.42;99435.13;5036054;28;20021;-77
2021/04/04 09:46:31;;;;;;;10.45;9.35;;;;;;;12.34;60.72;99440.88;5036052;28;20038;-77
2021/04/04 09:48:57;;;;;;;13.30;9.75;;;;;;;12.35;60.54;99446.97;5035859;28;20033;-76
2021/04/04 09:51:22;;;;;;;11.80;9.65;;;;;;;12.27;59.53;99432.06;5018422;28;20044;-76
2021/04/04 09:53:53;;;;;;;11.32;9.88;;;;;;;12.38;59.75;99459.84;5035746;28;20025;-76
2021/04/04 09:56:30;;;;;;;11.82;10.63;;;;;;;12.30;58.63;99439.63;5035796;28;20432;-76
2021/04/04 09:58:56;;;;;;;13.45;11.88;;;;;;;12.31;59.10;99443.91;5035841;28;20079;-76
2021/04/04 10:01:25;;;;;;;14.40;11.43;;;;;;;12.13;58.40;99424.19;5018348;28;20067;-76
2021/04/04 10:04:07;;;;;;;15.32;11.98;;;;;;;12.30;58.36;99459.97;5035718;28;20021;-76
2021/04/04 10:06:37;;;;;;;;;;;;;;;12.12;59.31;99462.25;5036146;28;20021;-77
2021/04/04 10:09:12;;;;;;;14.85;12.25;;;;;;;12.13;58.82;99448.03;5017882;28;19924;-76
2021/04/04 10:11:37;;;;;;;15.20;13.55;;;;;;;11.90;59.00;99422.56;5017988;28;20025;-77
2021/04/04 10:14:12;;;;;;;15.20;12.48;;;;;;;12.28;58.48;99468.09;5018119;28;20479;-75
2021/04/04 10:16:38;;;;;;;16.65;13.60;;;;;;;12.31;58.67;99469.56;5035598;28;20029;-77
2021/04/04 10:19:03;;;;;;;17.02;13.68;;;;;;;12.33;58.67;99472.81;5035564;28;20033;-76
2021/04/04 10:21:30;;;;;;;15.77;13.43;;;;;;;12.33;58.83;99481.59;5035556;28;20026;-76
2021/04/04 10:23:56;;;;;;;18.17;15.85;;;;;;;12.24;58.40;99469.50;5035404;28;20407;-76
2021/04/04 10:26:22;;;;;;;16.55;14.55;;;;;;;12.16;58.06;99455.56;5018000;28;20021;-77
2021/04/04 10:29:05;;;;;;;17.70;15.60;;;;;;;11.95;59.16;99440.53;5035321;28;20487;-77
2021/04/04 10:31:49;;;;;;;16.10;13.73;;;;;;;12.08;59.31;99445.94;5035499;28;20083;-77
2021/04/04 10:34:14;;;;;;;14.90;13.30;;;;;;;12.14;59.03;99444.38;5035508;28;20032;-76
2021/04/04 10:36:40;;;;;;;18.00;14.88;;;;;;;12.17;59.31;99446.63;5035087;28;20436;-77
2021/04/04 10:39:20;;;;;;;19.50;15.98;;;;;;;12.08;59.95;99449.41;5035298;28;20018;-77
2021/04/04 10:41:46;;;;;;;21.98;18.60;;;;;;;12.12;60.49;99451.66;5035138;28;20025;-77
2021/04/04 10:44:24;;;;;;;21.45;18.40;;;;;;;12.11;59.94;99452.69;5035229;28;20037;-76
2021/04/04 10:46:50;;;;;;;24.13;18.40;;;;;;;11.81;60.09;99401.69;5034215;28;20428;-77
2021/04/04 10:49:16;;;;;;;19.60;15.98;;;;;;;11.21;59.30;99297.97;5017500;28;20031;-76
2021/04/04 10:51:42;;;;;;;22.27;18.45;;;;;;;12.08;60.35;99438.81;5035103;28;20025;-77
2021/04/04 10:54:08;;;;;;;20.88;18.67;;;;;;;12.07;60.92;99426.59;5017486;28;20333;-77
2021/04/04 10:56:35;;;;;;;17.13;14.93;;;;;;;11.41;59.69;99317.50;5035207;28;20434;-78
2021/04/04 10:59:01;;;;;;;20.05;16.98;;;;;;;12.13;59.90;99429.50;5035021;28;20112;-78
2021/04/04 11:01:30;;;;;;;24.98;19.83;;;;;;;11.90;60.52;99406.69;5017356;28;20017;-77
2021/04/04 11:03:56;;;;;;;23.13;19.23;;;;;;;11.65;61.04;99408.84;5034716;28;20029;-77
2021/04/04 11:06:22;;;;;;;20.13;16.42;;;;;;;11.78;60.33;99445.22;5017374;28;20032;-76
2021/04/04 11:08:47;;;;;;;19.15;15.27;;;;;;;11.92;60.87;99452.31;5034581;28;20049;-76
2021/04/04 11:11:14;;;;;;;17.23;14.15;;;;;;;11.76;60.49;99396.94;5034703;28;20081;-77
2021/04/04 11:13:45;;;;;;;17.48;15.50;;;;;;;11.36;61.20;99333.09;5034667;28;20056;-77
2021/04/04 11:16:12;;;;;;;21.03;15.67;;;;;;;11.23;61.13;99343.53;5035121;28;20061;-77
2021/04/04 11:18:50;;;;;;;18.80;14.63;;;;;;;11.94;61.30;99433.59;5034887;28;20272;-77
2021/04/04 11:21:30;;;;;;;18.17;15.32;;;;;;;11.89;61.34;99433.31;5034752;28;20018;-77
2021/04/04 11:23:56;;;;;;;15.38;13.10;;;;;;;11.81;61.57;99434.25;5034570;28;20044;-76
2021/04/04 11:26:29;;;;;;;16.23;14.18;;;;;;;11.56;61.49;99399.41;5034771;28;20029;-77
2021/04/04 11:29:15;;;;;;;17.15;13.95;;;;;;;11.72;60.96;99403.63;5017008;28;20029;-77
2021/04/04 11:31:49;;;;;;;14.23;12.63;;;;;;;11.74;59.95;99404.25;5034507;28;20112;-77
2021/04/04 11:34:31;;;;;;;14.07;11.52;;;;;;;11.73;60.27;99392.03;5034836;28;20021;-78
2021/04/04 11:37:05;;;;;;;16.58;12.90;;;;;;;11.28;60.26;99338.50;5034432;28;20021;-77
2021/04/04 11:39:34;;;;;;;15.70;14.00;;;;;;;11.30;60.20;99341.78;5016955;28;20021;-77
2021/04/04 11:42:03;;;;;;;16.42;14.65;;;;;;;11.32;60.86;99354.81;5034322;28;20343;-77
2021/04/04 11:44:31;;;;;;;20.90;18.13;;;;;;;11.72;61.13;99408.91;5034330;28;20435;-77
2021/04/04 11:47:01;;;;;;;21.90;17.83;;;;;;;11.34;61.53;99368.66;5016690;28;20071;-77
2021/04/04 11:49:29;;;;;;;21.83;18.55;;;;;;;11.78;60.73;99418.78;5034346;28;20032;-77
2021/04/04 11:51:55;;;;;;;25.33;22.63;;;;;;;11.82;60.96;99413.91;5034285;28;20025;-76
2021/04/04 11:54:44;;;;;;;25.33;20.45;;;;;;;11.81;61.93;99415.75;5034264;28;20086;-78